Kota Waris — S6RJ — position and weather

sailwx.info

Track history (hours):
 
Tides and Currents Weather Stations Pressure Air Temp Water Temp Dewpoint Dewpoint Depression Visibility Wind Speed Wind Dir Waves Ship Positions

Kota Waris

Last reported at 2014-Nov-24 08:04 UTC. Time now 2014-Nov-24 16:19 UTC.
Position N 01°14' E 103°42'.

Length 185 m; draft 8.4 m.

Type: Ship (hazmat cat A). MMSI: 564482000.

Date/timePositionNaut miles runAvg speedWind from/ knotsBaromVisibWave heightAir tempDewpointWater temp
2014-Nov-24 08:04N 01°14' E 103°42'4 8.8
2014-Nov-24 07:33N 01°17' E 103°45'1 0.5
2014-Nov-24 05:23N 01°17' E 103°46'0 0.0
2014-Nov-24 04:32N 01°17' E 103°46'0 0.0
2014-Nov-24 03:11N 01°17' E 103°46'0 0.0
2014-Nov-24 01:32N 01°17' E 103°46'0 0.0
2014-Nov-24 00:26N 01°17' E 103°46'0 0.0
2014-Nov-23 23:32N 01°17' E 103°46'0 0.0
2014-Nov-23 22:20N 01°17' E 103°46'0 0.0
2014-Nov-23 21:26N 01°17' E 103°46'0 0.0
2014-Nov-23 19:26N 01°17' E 103°46'0 0.0
2014-Nov-23 18:26N 01°17' E 103°46'0 0.0
2014-Nov-23 17:26N 01°17' E 103°46'0 0.0
2014-Nov-23 16:26N 01°17' E 103°46'0 0.0
2014-Nov-23 14:26N 01°17' E 103°46'0 0.0
2014-Nov-23 12:20N 01°17' E 103°46'0 0.0
2014-Nov-23 11:32N 01°17' E 103°46'0 0.0
2014-Nov-23 10:32N 01°17' E 103°46'0 0.0
2014-Nov-23 09:32N 01°17' E 103°46'0 0.0
2014-Nov-23 08:26N 01°17' E 103°46'1 1.2
2014-Nov-23 07:31N 01°16' E 103°45'4 4.1
2014-Nov-23 06:32N 01°14' E 103°49'0 0.0
2014-Nov-22 18:30N 01°14' E 103°49'0 0.0
2014-Nov-22 15:30N 01°15' E 103°49'0 0.1
2014-Nov-22 14:30N 01°15' E 103°49'0 0.0
2014-Nov-22 13:12N 01°15' E 103°49'0 0.0
2014-Nov-22 12:30N 01°15' E 103°49'0 0.1
2014-Nov-22 11:30N 01°14' E 103°49'4 4.3
2014-Nov-22 10:33N 01°14' E 103°53'7 6.5
2014-Nov-22 09:32N 01°15' E 103°59'1111.6
2014-Nov-22 08:33N 01°17' E 104°10'  
2014-Nov-19 20:21N 16°09' E 108°23'1012.7
2014-Nov-19 19:33N 16°09' E 108°12'2 1.7
2014-Nov-19 18:33N 16°07' E 108°13'0 0.0
2014-Nov-19 17:33N 16°07' E 108°13'0 0.0
2014-Nov-19 16:33N 16°07' E 108°13'0 0.0
2014-Nov-19 15:30N 16°07' E 108°13'0 0.0
2014-Nov-19 14:30N 16°07' E 108°13'0 0.0
2014-Nov-19 13:33N 16°07' E 108°13'0 0.0
2014-Nov-19 12:33N 16°07' E 108°13'0 0.1
2014-Nov-19 11:34N 16°07' E 108°13'3 2.9
2014-Nov-19 10:33N 16°10' E 108°13'1212.0
2014-Nov-19 09:33N 16°15' E 108°24'260 5.4
2014-Nov-17 09:33N 20°10' E 110°21'142 7.5
2014-Nov-16 14:33N 21°36' E 108°20'0 0.0
2014-Nov-16 12:30N 21°36' E 108°20'0 0.0
2014-Nov-16 11:33N 21°36' E 108°20'0 0.0
2014-Nov-16 10:21N 21°36' E 108°20'  
Track history (hours):
 
Tides and Currents Weather Stations Pressure Air Temp Water Temp Dewpoint Dewpoint Depression Visibility Wind Speed Wind Dir Waves Ship Positions

Kota Waris

Last reported at 2014-Nov-24 08:04 UTC. Time now 2014-Nov-24 16:19 UTC.
Position N 01°14' E 103°42'.

Length 185 m; draft 8.4 m.

Type: Ship (hazmat cat A). MMSI: 564482000.

Date/timePositionNaut miles runAvg speedWind from/ knotsBaromVisibWave heightAir tempDewpointWater temp
2014-Nov-24 08:04N 01°14' E 103°42'4 8.8
2014-Nov-24 07:33N 01°17' E 103°45'1 0.5
2014-Nov-24 05:23N 01°17' E 103°46'0 0.0
2014-Nov-24 04:32N 01°17' E 103°46'0 0.0
2014-Nov-24 03:11N 01°17' E 103°46'0 0.0
2014-Nov-24 01:32N 01°17' E 103°46'0 0.0
2014-Nov-24 00:26N 01°17' E 103°46'0 0.0
2014-Nov-23 23:32N 01°17' E 103°46'0 0.0
2014-Nov-23 22:20N 01°17' E 103°46'0 0.0
2014-Nov-23 21:26N 01°17' E 103°46'0 0.0
2014-Nov-23 19:26N 01°17' E 103°46'0 0.0
2014-Nov-23 18:26N 01°17' E 103°46'0 0.0
2014-Nov-23 17:26N 01°17' E 103°46'0 0.0
2014-Nov-23 16:26N 01°17' E 103°46'0 0.0
2014-Nov-23 14:26N 01°17' E 103°46'0 0.0
2014-Nov-23 12:20N 01°17' E 103°46'0 0.0
2014-Nov-23 11:32N 01°17' E 103°46'0 0.0
2014-Nov-23 10:32N 01°17' E 103°46'0 0.0
2014-Nov-23 09:32N 01°17' E 103°46'0 0.0
2014-Nov-23 08:26N 01°17' E 103°46'1 1.2
2014-Nov-23 07:31N 01°16' E 103°45'4 4.1
2014-Nov-23 06:32N 01°14' E 103°49'0 0.0
2014-Nov-22 18:30N 01°14' E 103°49'0 0.0
2014-Nov-22 15:30N 01°15' E 103°49'0 0.1
2014-Nov-22 14:30N 01°15' E 103°49'0 0.0
2014-Nov-22 13:12N 01°15' E 103°49'0 0.0
2014-Nov-22 12:30N 01°15' E 103°49'0 0.1
2014-Nov-22 11:30N 01°14' E 103°49'4 4.3
2014-Nov-22 10:33N 01°14' E 103°53'7 6.5
2014-Nov-22 09:32N 01°15' E 103°59'1111.6
2014-Nov-22 08:33N 01°17' E 104°10'  
2014-Nov-19 20:21N 16°09' E 108°23'1012.7
2014-Nov-19 19:33N 16°09' E 108°12'2 1.7
2014-Nov-19 18:33N 16°07' E 108°13'0 0.0
2014-Nov-19 17:33N 16°07' E 108°13'0 0.0
2014-Nov-19 16:33N 16°07' E 108°13'0 0.0
2014-Nov-19 15:30N 16°07' E 108°13'0 0.0
2014-Nov-19 14:30N 16°07' E 108°13'0 0.0
2014-Nov-19 13:33N 16°07' E 108°13'0 0.0
2014-Nov-19 12:33N 16°07' E 108°13'0 0.1
2014-Nov-19 11:34N 16°07' E 108°13'3 2.9
2014-Nov-19 10:33N 16°10' E 108°13'1212.0
2014-Nov-19 09:33N 16°15' E 108°24'260 5.4
2014-Nov-17 09:33N 20°10' E 110°21'142 7.5
2014-Nov-16 14:33N 21°36' E 108°20'0 0.0
2014-Nov-16 12:30N 21°36' E 108°20'0 0.0
2014-Nov-16 11:33N 21°36' E 108°20'0 0.0
2014-Nov-16 10:21N 21°36' E 108°20'  

Dump ship's entire track history